createdAt,value
2023-03-30T00:01:12.880Z,9.77
2023-03-30T00:02:33.713Z,7.90
2023-03-30T00:03:54.985Z,15.27
2023-03-30T00:05:16.390Z,12.25
2023-03-30T00:06:37.351Z,10.38
2023-03-30T00:07:58.316Z,17.92
2023-03-30T00:09:18.920Z,13.25
2023-03-30T00:10:39.636Z,13.35
2023-03-30T00:12:00.769Z,11.90
2023-03-30T00:13:21.573Z,17.20
2023-03-30T00:14:42.555Z,13.63
2023-03-30T00:16:06.136Z,7.10
2023-03-30T00:17:26.873Z,11.13
2023-03-30T00:18:47.689Z,12.07
2023-03-30T00:20:09.766Z,10.50
2023-03-30T00:21:30.483Z,11.60
2023-03-30T00:22:51.164Z,13.10
2023-03-30T00:24:11.929Z,12.20
2023-03-30T00:25:33.053Z,13.27
2023-03-30T00:26:53.534Z,10.18
2023-03-30T00:28:14.415Z,12.80
2023-03-30T00:29:35.247Z,10.00
2023-03-30T00:30:55.999Z,13.60
2023-03-30T00:32:18.009Z,10.65
2023-03-30T00:33:46.267Z,10.48
2023-03-30T00:35:08.884Z,9.35
2023-03-30T00:37:50.019Z,13.70
2023-03-30T00:39:10.954Z,9.02
2023-03-30T00:40:32.718Z,13.10
2023-03-30T00:41:53.091Z,14.63
2023-03-30T00:43:14.105Z,14.38
2023-03-30T00:45:16.973Z,10.95
2023-03-30T00:46:37.898Z,11.13
2023-03-30T00:48:03.366Z,14.32
2023-03-30T00:49:23.978Z,11.38
2023-03-30T00:50:47.905Z,12.45
2023-03-30T00:52:08.944Z,10.93
2023-03-30T00:53:34.091Z,10.07
2023-03-30T00:54:56.180Z,11.32
2023-03-30T00:56:19.757Z,11.30
2023-03-30T00:57:41.557Z,13.15
2023-03-30T00:59:02.323Z,10.90
2023-03-30T01:00:23.139Z,9.23
2023-03-30T01:01:44.602Z,10.30
2023-03-30T01:04:28.400Z,13.55
2023-03-30T01:05:49.648Z,11.05
2023-03-30T01:07:10.355Z,15.57
2023-03-30T01:08:31.852Z,10.32
2023-03-30T01:11:13.084Z,11.65
2023-03-30T01:12:33.957Z,12.52
2023-03-30T01:13:57.872Z,13.40
2023-03-30T01:15:18.627Z,10.60
2023-03-30T01:16:44.416Z,10.88
2023-03-30T01:18:15.989Z,11.77
2023-03-30T01:20:06.529Z,10.73
2023-03-30T01:21:55.576Z,13.73
2023-03-30T01:23:38.986Z,10.35
2023-03-30T01:25:47.151Z,14.50
2023-03-30T01:27:14.474Z,13.38
2023-03-30T01:28:40.092Z,15.05
2023-03-30T01:30:14.038Z,13.65
2023-03-30T01:31:52.619Z,20.33
2023-03-30T01:33:46.326Z,15.90
2023-03-30T01:35:28.660Z,13.60
2023-03-30T01:37:31.904Z,19.60
2023-03-30T01:39:26.076Z,13.98
2023-03-30T01:40:50.548Z,10.98
2023-03-30T01:42:18.112Z,18.88
2023-03-30T01:43:44.189Z,17.13
2023-03-30T01:45:09.752Z,11.60
2023-03-30T01:46:32.895Z,11.07
2023-03-30T01:47:56.000Z,14.85
2023-03-30T01:49:22.611Z,11.05
2023-03-30T01:50:48.457Z,11.32
2023-03-30T01:52:15.411Z,12.45
2023-03-30T01:53:40.949Z,13.73
2023-03-30T01:55:05.419Z,12.38
2023-03-30T01:56:27.720Z,16.70
2023-03-30T01:57:51.742Z,12.95
2023-03-30T01:59:16.349Z,16.98
2023-03-30T02:00:37.656Z,17.35
2023-03-30T02:01:59.466Z,12.77
2023-03-30T02:03:23.170Z,13.48
2023-03-30T02:04:44.553Z,13.63
2023-03-30T02:06:09.578Z,28.67
2023-03-30T02:07:31.432Z,15.65
2023-03-30T02:08:52.901Z,13.25
2023-03-30T02:10:16.632Z,13.30
2023-03-30T02:11:38.688Z,17.00
2023-03-30T02:12:59.968Z,12.32
2023-03-30T02:14:23.958Z,10.60
2023-03-30T02:15:46.294Z,12.25
2023-03-30T02:17:09.743Z,14.05
2023-03-30T02:18:30.339Z,12.07
2023-03-30T02:19:51.707Z,16.02
2023-03-30T02:21:12.926Z,18.33
2023-03-30T02:22:33.989Z,8.95
2023-03-30T02:23:55.487Z,11.73
2023-03-30T02:25:17.599Z,12.43
2023-03-30T02:26:38.362Z,10.32
2023-03-30T02:27:59.064Z,15.82
2023-03-30T02:29:20.723Z,14.45
2023-03-30T02:30:43.482Z,14.65
2023-03-30T02:32:04.262Z,9.02
2023-03-30T02:33:28.312Z,13.60
2023-03-30T02:35:10.146Z,13.57
2023-03-30T02:36:48.053Z,11.63
2023-03-30T02:38:29.360Z,12.85
2023-03-30T02:39:58.105Z,13.68
2023-03-30T02:41:33.429Z,12.20
2023-03-30T02:43:07.293Z,12.95
2023-03-30T02:44:33.319Z,9.95
2023-03-30T02:46:01.546Z,12.90
2023-03-30T02:47:25.531Z,11.25
2023-03-30T02:48:53.445Z,19.05
2023-03-30T02:50:18.073Z,11.63
2023-03-30T02:51:41.249Z,17.67
2023-03-30T02:53:11.136Z,11.70
2023-03-30T02:54:38.618Z,14.73
2023-03-30T02:56:01.670Z,14.25
2023-03-30T02:57:31.875Z,8.80
2023-03-30T02:58:56.040Z,12.63
2023-03-30T03:00:21.003Z,12.07
2023-03-30T03:01:43.132Z,14.57
2023-03-30T03:03:07.737Z,12.90
2023-03-30T03:04:29.054Z,8.68
2023-03-30T03:05:50.072Z,12.75
2023-03-30T03:07:11.438Z,12.82
2023-03-30T03:08:35.515Z,10.50
2023-03-30T03:09:56.067Z,9.68
2023-03-30T03:11:16.763Z,13.32
2023-03-30T03:12:38.508Z,10.35
2023-03-30T03:13:59.252Z,12.32
2023-03-30T03:15:19.606Z,12.55
2023-03-30T03:16:40.376Z,14.03
2023-03-30T03:18:01.022Z,9.67
2023-03-30T03:19:21.696Z,12.20
2023-03-30T03:20:42.369Z,9.15
2023-03-30T03:22:03.243Z,8.20
2023-03-30T03:23:23.904Z,11.15
2023-03-30T03:24:44.671Z,13.40
2023-03-30T03:26:05.452Z,11.93
2023-03-30T03:27:26.003Z,18.65
2023-03-30T03:28:47.999Z,14.70
2023-03-30T03:30:09.955Z,14.05
2023-03-30T03:31:30.537Z,13.25
2023-03-30T03:32:51.742Z,13.43
2023-03-30T03:34:12.345Z,16.27
2023-03-30T03:35:33.157Z,11.13
2023-03-30T03:36:53.946Z,15.13
2023-03-30T03:38:15.007Z,20.92
2023-03-30T03:39:35.647Z,20.17
2023-03-30T03:40:58.213Z,13.88
2023-03-30T03:42:18.572Z,21.20
2023-03-30T03:43:39.484Z,18.88
2023-03-30T03:45:01.340Z,14.73
2023-03-30T03:46:22.099Z,14.55
2023-03-30T03:47:42.911Z,15.02
2023-03-30T03:49:03.567Z,15.27
2023-03-30T03:50:24.034Z,16.75
2023-03-30T03:51:44.803Z,13.93
2023-03-30T03:53:05.676Z,16.80
2023-03-30T03:54:26.432Z,11.80
2023-03-30T03:55:47.296Z,18.58
2023-03-30T03:57:08.014Z,21.50
2023-03-30T03:58:28.756Z,24.10
2023-03-30T03:59:49.876Z,27.70
2023-03-30T04:01:12.026Z,19.25
2023-03-30T04:02:32.840Z,18.95
2023-03-30T04:03:53.709Z,23.52
2023-03-30T04:05:14.485Z,27.42
2023-03-30T04:06:35.433Z,28.35
2023-03-30T04:07:56.199Z,25.20
2023-03-30T04:09:16.851Z,17.98
2023-03-30T04:10:37.975Z,21.42
2023-03-30T04:11:58.988Z,23.52
2023-03-30T04:13:19.606Z,23.03
2023-03-30T04:14:40.281Z,34.60
2023-03-30T04:16:01.105Z,27.73
2023-03-30T04:17:23.682Z,30.60
2023-03-30T04:18:44.450Z,27.00
2023-03-30T04:20:06.796Z,23.38
2023-03-30T04:21:27.820Z,24.33
2023-03-30T04:22:48.314Z,25.70
2023-03-30T04:24:09.991Z,22.73
2023-03-30T04:25:30.462Z,28.80
2023-03-30T04:26:51.123Z,27.93
2023-03-30T04:28:11.828Z,24.17
2023-03-30T04:29:32.774Z,35.05
2023-03-30T04:30:58.027Z,37.88
2023-03-30T04:32:18.767Z,32.47
2023-03-30T04:33:42.322Z,33.77
2023-03-30T04:35:03.596Z,37.00
2023-03-30T04:36:23.972Z,36.10
2023-03-30T04:37:44.926Z,41.40
2023-03-30T04:39:05.228Z,33.05
2023-03-30T04:40:26.864Z,35.80
2023-03-30T04:41:47.823Z,34.40
2023-03-30T04:43:08.457Z,30.80
2023-03-30T04:44:29.268Z,30.38
2023-03-30T04:45:49.827Z,32.92
2023-03-30T04:47:10.512Z,30.63
2023-03-30T04:48:31.053Z,43.65
2023-03-30T04:49:53.176Z,36.25
2023-03-30T04:51:14.023Z,37.63
2023-03-30T04:52:34.791Z,31.67
2023-03-30T04:53:55.570Z,38.58
2023-03-30T04:55:16.395Z,37.87
2023-03-30T04:56:36.855Z,40.73
2023-03-30T04:57:57.552Z,47.10
2023-03-30T04:59:18.545Z,38.92
2023-03-30T05:00:39.032Z,37.95
2023-03-30T05:02:00.170Z,46.17
2023-03-30T05:03:23.246Z,31.33
2023-03-30T05:04:43.983Z,38.35
2023-03-30T05:06:06.810Z,42.65
2023-03-30T05:07:27.351Z,37.38
2023-03-30T05:08:48.028Z,33.20
2023-03-30T05:10:09.158Z,40.40
2023-03-30T05:11:29.747Z,41.55
2023-03-30T05:12:50.405Z,40.13
2023-03-30T05:14:11.007Z,33.95
2023-03-30T05:15:31.185Z,37.45
2023-03-30T05:16:52.014Z,26.35
2023-03-30T05:18:13.008Z,37.08
2023-03-30T05:19:33.809Z,43.38
2023-03-30T05:20:57.027Z,47.35
2023-03-30T05:22:19.374Z,42.08
2023-03-30T05:23:40.096Z,32.85
2023-03-30T05:25:00.978Z,47.00
2023-03-30T05:26:21.437Z,41.13
2023-03-30T05:27:42.177Z,36.63
2023-03-30T05:29:02.659Z,34.50
2023-03-30T05:30:23.402Z,46.53
2023-03-30T05:31:44.430Z,45.08
2023-03-30T05:33:04.981Z,44.83
2023-03-30T05:34:25.844Z,51.08
2023-03-30T05:35:46.391Z,39.33
2023-03-30T05:37:07.277Z,49.10
2023-03-30T05:38:29.297Z,39.88
2023-03-30T05:39:49.965Z,39.30
2023-03-30T05:41:10.450Z,36.55
2023-03-30T05:42:31.350Z,51.08
2023-03-30T05:43:52.204Z,45.08
2023-03-30T05:45:13.220Z,49.42
2023-03-30T05:46:34.262Z,51.80
2023-03-30T05:47:55.066Z,50.42
2023-03-30T05:49:16.244Z,48.97
2023-03-30T05:50:37.239Z,43.38
2023-03-30T05:51:57.906Z,46.35
2023-03-30T05:53:18.953Z,50.78
2023-03-30T05:54:40.936Z,48.15
2023-03-30T05:56:01.723Z,52.65
2023-03-30T05:57:22.536Z,54.63
2023-03-30T05:58:43.722Z,44.53
2023-03-30T06:00:04.741Z,54.42
2023-03-30T06:01:25.852Z,58.25
2023-03-30T06:02:47.102Z,48.42
2023-03-30T06:05:29.010Z,45.00
2023-03-30T06:06:49.843Z,52.72
2023-03-30T06:08:11.302Z,43.38
2023-03-30T06:09:31.837Z,40.33
2023-03-30T06:10:55.052Z,40.53
2023-03-30T06:12:15.476Z,40.13
2023-03-30T06:13:36.266Z,54.55
2023-03-30T06:14:57.154Z,42.05
2023-03-30T06:16:18.572Z,55.63
2023-03-30T06:17:39.677Z,49.15
2023-03-30T06:19:00.269Z,44.88
2023-03-30T06:20:21.753Z,55.38
2023-03-30T06:23:03.277Z,56.13
2023-03-30T06:24:24.673Z,51.20
2023-03-30T06:25:48.713Z,48.28
2023-03-30T06:27:10.813Z,51.70
2023-03-30T06:28:32.093Z,52.53
2023-03-30T06:29:53.020Z,42.78
2023-03-30T06:31:14.159Z,57.20
2023-03-30T06:32:35.109Z,49.15
2023-03-30T06:33:56.023Z,56.58
2023-03-30T06:35:16.890Z,54.45
2023-03-30T06:36:44.810Z,48.75
2023-03-30T06:38:06.772Z,59.17
2023-03-30T06:39:27.493Z,58.35
2023-03-30T06:40:48.491Z,57.08
2023-03-30T06:42:10.386Z,54.90
2023-03-30T06:43:31.160Z,51.40
2023-03-30T06:44:51.859Z,56.03
2023-03-30T06:46:12.657Z,62.85
2023-03-30T06:47:33.154Z,56.13
2023-03-30T06:48:54.014Z,67.67
2023-03-30T06:50:14.809Z,54.85
2023-03-30T06:51:35.745Z,45.70
2023-03-30T06:52:56.162Z,55.20
2023-03-30T06:54:17.071Z,67.38
2023-03-30T06:55:37.683Z,55.75
2023-03-30T06:56:58.467Z,57.58
2023-03-30T06:58:20.392Z,57.10
2023-03-30T06:59:40.852Z,66.65
2023-03-30T07:01:09.210Z,58.43
2023-03-30T07:02:29.842Z,58.03
2023-03-30T07:03:52.556Z,55.80
2023-03-30T07:05:13.436Z,64.90
2023-03-30T07:06:34.070Z,65.37
2023-03-30T07:07:55.277Z,52.15
2023-03-30T07:09:15.870Z,51.00
2023-03-30T07:10:36.897Z,61.10
2023-03-30T07:11:57.390Z,48.25
2023-03-30T07:13:18.296Z,70.32
2023-03-30T07:14:40.160Z,70.38
2023-03-30T07:16:00.855Z,53.38
2023-03-30T07:17:21.629Z,56.80
2023-03-30T07:18:42.399Z,63.00
2023-03-30T07:20:03.951Z,54.25
2023-03-30T07:21:24.644Z,61.00
2023-03-30T07:22:45.377Z,67.40
2023-03-30T07:24:06.143Z,68.00
2023-03-30T07:25:26.669Z,69.35
2023-03-30T07:26:47.285Z,66.28
2023-03-30T07:28:07.861Z,74.95
2023-03-30T07:29:28.349Z,58.58
2023-03-30T07:30:50.536Z,67.65
2023-03-30T07:32:11.180Z,62.60
2023-03-30T07:33:31.827Z,61.20
2023-03-30T07:34:52.594Z,66.53
2023-03-30T07:36:13.720Z,65.50
2023-03-30T07:37:34.515Z,68.15
2023-03-30T07:38:56.344Z,70.97
2023-03-30T07:40:17.241Z,75.20
2023-03-30T07:41:37.958Z,71.25
2023-03-30T07:42:58.906Z,76.18
2023-03-30T07:44:19.623Z,58.33
2023-03-30T07:45:40.484Z,60.70
2023-03-30T07:47:02.416Z,69.77
2023-03-30T07:48:23.179Z,80.97
2023-03-30T07:49:43.904Z,70.28
2023-03-30T07:51:06.519Z,78.57
2023-03-30T07:52:27.210Z,65.88
2023-03-30T07:53:48.275Z,70.10
2023-03-30T07:55:09.400Z,70.72
2023-03-30T07:56:30.267Z,61.72
2023-03-30T07:57:50.981Z,59.53
2023-03-30T07:59:11.762Z,59.40
2023-03-30T08:00:32.196Z,64.17
2023-03-30T08:01:53.121Z,51.83
2023-03-30T08:03:15.595Z,53.13
2023-03-30T08:04:36.605Z,54.85
2023-03-30T08:05:58.983Z,58.25
2023-03-30T08:07:19.782Z,66.20
2023-03-30T08:08:40.486Z,66.60
2023-03-30T08:10:01.334Z,63.42
2023-03-30T08:11:22.429Z,55.15
2023-03-30T08:12:43.237Z,64.68
2023-03-30T08:14:04.326Z,59.30
2023-03-30T08:15:25.080Z,65.00
2023-03-30T08:16:45.784Z,61.08
2023-03-30T08:18:06.483Z,67.50
2023-03-30T08:19:29.112Z,65.55
2023-03-30T08:20:51.404Z,66.18
2023-03-30T08:22:12.123Z,62.72
2023-03-30T08:23:33.029Z,61.17
2023-03-30T08:24:53.647Z,80.53
2023-03-30T08:26:14.406Z,68.97
2023-03-30T08:27:35.654Z,70.65
2023-03-30T08:28:56.197Z,76.18
2023-03-30T08:30:16.819Z,65.55
2023-03-30T08:31:38.016Z,66.05
2023-03-30T08:32:59.548Z,63.53
2023-03-30T08:34:20.260Z,67.20
2023-03-30T08:35:44.076Z,69.43
2023-03-30T08:37:04.937Z,60.13
2023-03-30T08:38:25.407Z,60.88
2023-03-30T08:39:59.755Z,60.00
2023-03-30T08:41:59.630Z,58.28
2023-03-30T08:43:42.433Z,57.78
2023-03-30T08:46:43.173Z,62.33
2023-03-30T08:48:12.232Z,66.75
2023-03-30T08:49:41.817Z,63.78
2023-03-30T08:51:13.519Z,64.18
2023-03-30T08:53:58.000Z,48.90
2023-03-30T08:55:23.888Z,69.07
2023-03-30T08:56:58.094Z,61.40
2023-03-30T08:58:40.087Z,68.18
2023-03-30T09:00:17.583Z,67.43
2023-03-30T09:01:46.834Z,71.97
2023-03-30T09:03:21.632Z,67.35
2023-03-30T09:04:56.977Z,68.15
2023-03-30T09:06:46.021Z,57.55
2023-03-30T09:08:15.888Z,75.13
2023-03-30T09:09:49.377Z,76.25
2023-03-30T09:11:12.240Z,66.35
2023-03-30T09:12:42.184Z,67.57
2023-03-30T09:14:06.308Z,69.07
2023-03-30T09:15:39.676Z,64.53
2023-03-30T09:17:05.804Z,60.80
2023-03-30T09:18:32.039Z,60.47
2023-03-30T09:20:01.066Z,62.38
2023-03-30T09:21:29.535Z,78.55
2023-03-30T09:23:09.383Z,61.50
2023-03-30T09:24:33.631Z,66.72
2023-03-30T09:26:13.357Z,72.07
2023-03-30T09:27:42.677Z,62.85
2023-03-30T09:29:10.061Z,58.38
2023-03-30T09:30:42.975Z,60.65
2023-03-30T09:32:32.333Z,72.78
2023-03-30T09:34:34.871Z,72.70
2023-03-30T09:36:12.775Z,74.57
2023-03-30T09:37:51.392Z,70.88
2023-03-30T09:39:33.408Z,62.53
2023-03-30T09:41:22.211Z,60.03
2023-03-30T09:43:02.552Z,70.22
2023-03-30T09:44:41.195Z,64.40
2023-03-30T09:47:39.372Z,66.22
2023-03-30T09:49:33.911Z,51.60
2023-03-30T09:51:05.456Z,51.45
2023-03-30T09:52:30.489Z,57.47
2023-03-30T09:53:58.517Z,52.83
2023-03-30T09:55:26.986Z,48.97
2023-03-30T09:56:47.389Z,58.67
2023-03-30T09:58:12.728Z,55.97
2023-03-30T09:59:34.921Z,54.50
2023-03-30T10:01:04.549Z,63.53
2023-03-30T10:02:29.529Z,62.53
2023-03-30T10:04:08.126Z,60.72
2023-03-30T10:05:31.700Z,57.55
2023-03-30T10:06:52.100Z,57.53
2023-03-30T10:08:22.917Z,50.85
2023-03-30T10:09:46.404Z,56.35
2023-03-30T10:11:07.052Z,54.03
2023-03-30T10:12:29.875Z,65.68
2023-03-30T10:13:50.787Z,47.42
2023-03-30T10:15:16.612Z,57.78
2023-03-30T10:16:37.420Z,48.38
2023-03-30T10:18:01.262Z,66.78
2023-03-30T10:19:22.996Z,62.88
2023-03-30T10:22:15.179Z,53.95
2023-03-30T10:23:38.034Z,57.92
2023-03-30T10:25:10.130Z,64.57
2023-03-30T10:26:31.380Z,58.10
2023-03-30T10:27:55.035Z,49.92
2023-03-30T10:29:18.680Z,63.55
2023-03-30T10:30:39.187Z,51.85
2023-03-30T10:32:02.841Z,58.78
2023-03-30T10:33:23.992Z,46.90
2023-03-30T10:34:45.405Z,49.30
2023-03-30T10:37:30.544Z,58.08
2023-03-30T10:38:51.177Z,55.75
2023-03-30T10:40:18.937Z,50.22
2023-03-30T10:41:43.529Z,56.80
2023-03-30T10:43:12.768Z,58.03
2023-03-30T10:44:45.430Z,55.55
2023-03-30T10:46:18.883Z,56.10
2023-03-30T10:48:01.121Z,53.13
2023-03-30T10:49:32.853Z,54.88
2023-03-30T10:52:19.918Z,54.25
2023-03-30T10:53:47.603Z,44.40
2023-03-30T10:55:11.451Z,50.47
2023-03-30T10:56:38.028Z,60.85
2023-03-30T10:58:02.404Z,48.75
2023-03-30T10:59:40.379Z,52.00
2023-03-30T11:01:11.230Z,61.42
2023-03-30T11:02:51.260Z,49.08
2023-03-30T11:04:23.578Z,52.42
2023-03-30T11:05:47.031Z,55.08
2023-03-30T11:07:12.163Z,58.28
2023-03-30T11:08:35.454Z,52.53
2023-03-30T11:10:00.056Z,50.95
2023-03-30T11:11:22.920Z,53.28
2023-03-30T11:12:48.299Z,47.40
2023-03-30T11:14:14.143Z,56.65
2023-03-30T11:15:38.216Z,39.13
2023-03-30T11:17:01.651Z,42.63
2023-03-30T11:18:25.524Z,51.50
2023-03-30T11:19:49.383Z,57.47
2023-03-30T11:21:14.861Z,54.20
2023-03-30T11:22:38.558Z,49.85
2023-03-30T11:24:01.547Z,67.85
2023-03-30T11:25:23.972Z,48.83
2023-03-30T11:26:47.566Z,50.65
2023-03-30T11:28:15.796Z,49.22
2023-03-30T11:29:41.992Z,59.10
2023-03-30T11:31:09.994Z,51.25
2023-03-30T11:32:33.210Z,58.42
2023-03-30T11:33:58.134Z,66.28
2023-03-30T11:35:25.311Z,60.65
2023-03-30T11:36:49.545Z,72.85
2023-03-30T11:38:14.502Z,73.50
2023-03-30T11:39:36.944Z,61.35
2023-03-30T11:41:00.606Z,65.53
2023-03-30T11:42:24.198Z,69.15
2023-03-30T11:43:46.382Z,67.65
2023-03-30T11:45:18.929Z,60.88
2023-03-30T11:46:42.797Z,66.07
2023-03-30T11:48:20.769Z,70.82
2023-03-30T11:49:53.402Z,62.10
2023-03-30T11:51:33.906Z,62.15
2023-03-30T11:53:06.438Z,66.75
2023-03-30T11:55:05.646Z,60.33
2023-03-30T11:56:33.811Z,62.55
2023-03-30T11:58:03.158Z,61.65
2023-03-30T11:59:36.824Z,75.97
2023-03-30T12:01:19.425Z,66.90
2023-03-30T12:02:46.770Z,78.68
2023-03-30T12:04:10.387Z,75.97
2023-03-30T12:05:35.565Z,74.45
2023-03-30T12:06:58.065Z,69.47
2023-03-30T12:08:32.103Z,87.57
2023-03-30T12:09:54.851Z,76.75
2023-03-30T12:11:20.396Z,58.55
2023-03-30T12:12:41.711Z,82.57
2023-03-30T12:14:02.174Z,66.40
2023-03-30T12:15:34.279Z,63.83
2023-03-30T12:17:01.654Z,90.47
2023-03-30T12:18:29.053Z,67.32
2023-03-30T12:19:56.417Z,80.25
2023-03-30T12:21:30.369Z,61.20
2023-03-30T12:22:55.197Z,75.47
2023-03-30T12:24:18.487Z,71.35
2023-03-30T12:25:48.486Z,67.90
2023-03-30T12:27:11.752Z,67.65
2023-03-30T12:29:04.911Z,72.25
2023-03-30T12:30:29.910Z,83.25
2023-03-30T12:32:05.136Z,73.60
2023-03-30T12:33:27.864Z,75.70
2023-03-30T12:34:48.356Z,75.38
2023-03-30T12:36:23.028Z,69.63
2023-03-30T12:37:43.794Z,84.22
2023-03-30T12:39:08.045Z,71.65
2023-03-30T12:40:28.505Z,71.95
2023-03-30T12:41:49.814Z,88.87
2023-03-30T12:43:16.990Z,69.32
2023-03-30T12:44:42.040Z,77.88
2023-03-30T12:46:06.956Z,79.72
2023-03-30T12:47:37.009Z,80.20
2023-03-30T12:49:06.361Z,68.85
2023-03-30T12:50:36.285Z,86.55
2023-03-30T12:52:07.152Z,65.90
2023-03-30T12:53:56.392Z,67.20
2023-03-30T12:55:24.374Z,71.03
2023-03-30T12:56:51.229Z,72.18
2023-03-30T12:58:43.901Z,68.43
2023-03-30T13:00:26.845Z,73.70
2023-03-30T13:02:00.411Z,70.32
2023-03-30T13:03:34.507Z,74.43
2023-03-30T13:04:55.538Z,73.03
2023-03-30T13:06:28.305Z,54.05
2023-03-30T13:07:49.861Z,46.53
2023-03-30T13:09:33.243Z,75.03
2023-03-30T13:11:13.056Z,75.30
2023-03-30T13:12:39.484Z,61.30
2023-03-30T13:14:03.837Z,57.70
2023-03-30T13:15:40.294Z,62.40
2023-03-30T13:17:14.438Z,52.00
2023-03-30T13:18:41.517Z,49.85
2023-03-30T13:20:28.114Z,68.72
2023-03-30T13:21:55.903Z,55.78
2023-03-30T13:23:31.606Z,53.53
2023-03-30T13:24:54.549Z,53.08
2023-03-30T13:26:32.341Z,58.55
2023-03-30T13:27:58.205Z,52.38
2023-03-30T13:29:29.147Z,50.63
2023-03-30T13:30:49.685Z,46.45
2023-03-30T13:32:20.097Z,45.25
2023-03-30T13:33:42.522Z,50.63
2023-03-30T13:35:36.018Z,53.70
2023-03-30T13:37:00.994Z,56.80
2023-03-30T13:38:55.358Z,45.35
2023-03-30T13:40:27.623Z,48.08
2023-03-30T13:42:05.527Z,57.75
2023-03-30T13:43:39.075Z,50.88
2023-03-30T13:45:06.865Z,50.25
2023-03-30T13:46:30.661Z,49.35
2023-03-30T13:48:01.429Z,60.80
2023-03-30T13:49:33.006Z,53.57
2023-03-30T13:50:56.702Z,51.78
2023-03-30T13:52:19.860Z,57.83
2023-03-30T13:53:44.614Z,46.08
2023-03-30T13:55:14.258Z,57.75
2023-03-30T13:56:37.530Z,56.50
2023-03-30T13:58:01.801Z,53.60
2023-03-30T13:59:26.409Z,50.25
2023-03-30T14:00:49.927Z,46.80
2023-03-30T14:02:15.082Z,53.13
2023-03-30T14:03:40.121Z,48.20
2023-03-30T14:05:13.114Z,39.17
2023-03-30T14:06:34.025Z,35.05
2023-03-30T14:07:58.440Z,52.65
2023-03-30T14:09:21.295Z,57.60
2023-03-30T14:10:46.637Z,48.83
2023-03-30T14:12:07.675Z,48.08
2023-03-30T14:13:29.079Z,52.95
2023-03-30T14:14:50.262Z,43.03
2023-03-30T14:16:12.743Z,48.65
2023-03-30T14:17:33.507Z,44.67
2023-03-30T14:19:09.949Z,55.75
2023-03-30T14:20:44.555Z,45.92
2023-03-30T14:22:11.995Z,46.13
2023-03-30T14:23:36.560Z,54.58
2023-03-30T14:24:57.716Z,63.53
2023-03-30T14:26:19.562Z,43.65
2023-03-30T14:27:40.335Z,46.50
2023-03-30T14:29:04.344Z,51.78
2023-03-30T14:30:26.057Z,43.72
2023-03-30T14:32:04.451Z,47.90
2023-03-30T14:34:51.470Z,36.58
2023-03-30T14:36:14.434Z,46.92
2023-03-30T14:37:35.406Z,49.78
2023-03-30T14:38:56.218Z,47.08
2023-03-30T14:40:16.659Z,47.08
2023-03-30T14:41:38.804Z,44.33
2023-03-30T14:42:59.714Z,46.95
2023-03-30T14:44:22.762Z,52.50
2023-03-30T14:45:44.480Z,59.88
2023-03-30T14:47:07.418Z,39.65
2023-03-30T14:48:31.211Z,45.60
2023-03-30T14:49:54.499Z,47.03
2023-03-30T14:51:25.678Z,54.33
2023-03-30T14:52:47.062Z,47.83
2023-03-30T14:55:28.506Z,50.13
2023-03-30T14:56:54.417Z,48.00
2023-03-30T14:58:15.569Z,43.30
2023-03-30T14:59:41.470Z,52.20
2023-03-30T15:01:07.564Z,46.28
2023-03-30T15:02:31.760Z,36.15
2023-03-30T15:03:53.055Z,44.10
2023-03-30T15:05:17.099Z,37.78
2023-03-30T15:06:38.053Z,48.10
2023-03-30T15:07:58.543Z,40.72
2023-03-30T15:09:20.614Z,29.88
2023-03-30T15:10:45.448Z,40.40
2023-03-30T15:12:06.516Z,38.25
2023-03-30T15:13:31.904Z,38.08
2023-03-30T15:14:55.142Z,37.65
2023-03-30T15:16:18.301Z,35.47
2023-03-30T15:17:39.704Z,42.83
2023-03-30T15:19:02.999Z,33.28
2023-03-30T15:20:26.630Z,30.15
2023-03-30T15:21:50.923Z,36.00
2023-03-30T15:23:13.060Z,39.17
2023-03-30T15:24:35.388Z,38.63
2023-03-30T15:25:58.563Z,35.75
2023-03-30T15:27:19.633Z,30.42
2023-03-30T15:28:44.684Z,31.40
2023-03-30T15:30:06.551Z,33.10
2023-03-30T15:31:28.261Z,34.20
2023-03-30T15:34:14.657Z,41.67
2023-03-30T15:35:37.623Z,39.58
2023-03-30T15:36:58.045Z,41.20
2023-03-30T15:38:27.527Z,35.10
2023-03-30T15:39:48.910Z,37.10
2023-03-30T15:41:13.501Z,38.78
2023-03-30T15:42:33.904Z,37.33
2023-03-30T15:43:56.586Z,43.33
2023-03-30T15:45:17.178Z,42.58
2023-03-30T15:46:38.145Z,31.77
2023-03-30T15:47:58.678Z,37.08
2023-03-30T15:49:20.915Z,40.50
2023-03-30T15:50:44.942Z,38.13
2023-03-30T15:52:11.289Z,34.97
2023-03-30T15:53:35.734Z,35.42
2023-03-30T15:54:56.525Z,38.30
2023-03-30T15:56:20.240Z,38.90
2023-03-30T15:57:42.614Z,39.75
2023-03-30T15:59:03.921Z,35.63
2023-03-30T16:00:27.955Z,38.42
2023-03-30T16:01:51.824Z,39.75
2023-03-30T16:03:13.178Z,34.13
2023-03-30T16:04:33.635Z,34.63
2023-03-30T16:05:55.653Z,29.05
2023-03-30T16:07:18.150Z,31.67
2023-03-30T16:08:38.575Z,33.97
2023-03-30T16:09:59.142Z,32.80
2023-03-30T16:11:20.113Z,32.40
2023-03-30T16:12:41.806Z,34.38
2023-03-30T16:15:24.582Z,33.87
2023-03-30T16:16:45.018Z,28.83
2023-03-30T16:18:05.640Z,31.98
2023-03-30T16:19:26.465Z,30.88
2023-03-30T16:20:50.349Z,45.92
2023-03-30T16:22:13.947Z,31.15
2023-03-30T16:23:34.436Z,34.33
2023-03-30T16:24:55.087Z,39.25
2023-03-30T16:26:15.645Z,36.80
2023-03-30T16:27:39.053Z,33.42
2023-03-30T16:28:59.421Z,38.70
2023-03-30T16:30:24.015Z,31.13
2023-03-30T16:31:44.554Z,27.35
2023-03-30T16:33:05.173Z,28.47
2023-03-30T16:34:25.963Z,30.92
2023-03-30T16:35:46.401Z,33.13
2023-03-30T16:37:07.123Z,34.38
2023-03-30T16:38:29.403Z,31.45
2023-03-30T16:39:49.712Z,31.05
2023-03-30T16:41:11.987Z,30.75
2023-03-30T16:42:32.706Z,40.58
2023-03-30T16:43:53.254Z,30.80
2023-03-30T16:45:14.788Z,29.17
2023-03-30T16:46:35.421Z,34.60
2023-03-30T16:47:55.937Z,35.90
2023-03-30T16:49:19.639Z,29.95
2023-03-30T16:50:41.057Z,34.28
2023-03-30T16:52:01.707Z,32.17
2023-03-30T16:53:22.710Z,31.98
2023-03-30T16:54:44.700Z,35.65
2023-03-30T16:56:05.811Z,34.28
2023-03-30T16:57:26.616Z,29.95
2023-03-30T16:58:47.614Z,39.60
2023-03-30T17:00:17.780Z,32.67
2023-03-30T17:01:38.307Z,38.80
2023-03-30T17:02:59.050Z,33.55
2023-03-30T17:04:19.538Z,31.40
2023-03-30T17:05:40.842Z,35.47
2023-03-30T17:07:01.498Z,44.53
2023-03-30T17:08:24.453Z,35.58
2023-03-30T17:09:46.461Z,44.13
2023-03-30T17:11:07.487Z,42.95
2023-03-30T17:12:28.318Z,34.22
2023-03-30T17:13:49.115Z,32.95
2023-03-30T17:15:10.767Z,38.50
2023-03-30T17:16:31.673Z,42.42
2023-03-30T17:17:52.606Z,45.70
2023-03-30T17:19:14.050Z,43.83
2023-03-30T17:20:37.267Z,42.80
2023-03-30T17:21:58.706Z,44.30
2023-03-30T17:23:19.927Z,46.55
2023-03-30T17:24:40.958Z,43.30
2023-03-30T17:26:05.455Z,35.70
2023-03-30T17:27:25.997Z,31.13
2023-03-30T17:28:46.818Z,36.67
2023-03-30T17:30:18.937Z,33.80
2023-03-30T17:31:39.724Z,37.72
2023-03-30T17:33:00.450Z,42.58
2023-03-30T17:34:20.934Z,39.53
2023-03-30T17:35:42.627Z,36.70
2023-03-30T17:37:03.288Z,32.90
2023-03-30T17:38:23.678Z,43.47
2023-03-30T17:39:45.274Z,42.70
2023-03-30T17:42:29.035Z,37.60
2023-03-30T17:43:50.842Z,45.85
2023-03-30T17:46:35.303Z,38.25
2023-03-30T17:47:57.197Z,38.58
2023-03-30T17:49:18.559Z,42.92
2023-03-30T17:50:40.757Z,39.23
2023-03-30T17:52:01.235Z,45.85
2023-03-30T17:53:23.006Z,34.78
2023-03-30T17:54:45.929Z,47.60
2023-03-30T17:56:09.584Z,46.38
2023-03-30T17:57:29.899Z,45.53
2023-03-30T17:58:56.626Z,39.65
2023-03-30T18:00:21.268Z,56.67
2023-03-30T18:01:42.073Z,49.10
2023-03-30T18:03:02.754Z,39.30
2023-03-30T18:04:23.316Z,43.53
2023-03-30T18:05:47.158Z,47.80
2023-03-30T18:07:09.204Z,50.20
2023-03-30T18:08:30.450Z,43.10
2023-03-30T18:09:50.945Z,45.08
2023-03-30T18:11:13.030Z,50.80
2023-03-30T18:12:33.367Z,46.90
2023-03-30T18:13:54.166Z,57.15
2023-03-30T18:15:16.109Z,49.67
2023-03-30T18:16:39.379Z,50.85
2023-03-30T18:18:00.886Z,52.38
2023-03-30T18:20:42.748Z,58.80
2023-03-30T18:22:04.571Z,51.42
2023-03-30T18:23:25.349Z,52.50
2023-03-30T18:24:45.834Z,55.60
2023-03-30T18:26:10.166Z,52.05
2023-03-30T18:27:33.166Z,50.47
2023-03-30T18:28:53.722Z,50.08
2023-03-30T18:30:19.941Z,44.50
2023-03-30T18:31:40.758Z,46.95
2023-03-30T18:33:01.303Z,38.45
2023-03-30T18:34:21.838Z,50.25
2023-03-30T18:35:43.384Z,63.45